Main page
METAR-TAF:

METAR-TAF

Airports :

Beja, Portugal

Beja Airbase

latitude: 38-04-40N, longitude: 007-55-57W, elevation: 193 m

Current weather observation

The report was made 1 hour and 7 minutes ago, at 22:00 UTC
Wind 7 kt from the Northwest
Temperature 23°C
Humidity 50%
Pressure 1016 hPa
Visibility 10 km or more
no clouds below 1500 m and no cumulonimbus

METAR: LPBJ 232200Z 31007KT CAVOK 23/12 Q1016

Time: 00:07 (23:07 UTC)

Forecast

The report was made 5 hours and 59 minutes ago, at 17:08 UTC
Forecast valid from 23 at 18 UTC to 24 at 18 UTC
Wind 10 kt from the Northwest
Visibility 10 km or more
no clouds below 1500 m and no cumulonimbus
Becoming
from 23 at 22 UTC to 23 at 24 UTC
Wind 5 kt from the North/Northwest
Probability 40%
from 24 at 04 UTC to 24 at 07 UTC
Visibility: 4000 m
Scattered clouds at a height of 500 ft
patches of fog

TAF: LPBJ 231708Z 2318/2418 31010KT CAVOK BECMG 2322/2324 33005KT PROB40 2404/2407 4000 BCFG SCT005

Weather observations and forecasts of more than 4000 airports (METAR and TAF reports).

The available stations are represented by yellow and red dots on the map.

Hover mouse over dot to see the name of the station.

Then click to see weather observations and forecasts.

To change the map : click on the green buttons with a black cross to zoom in, on the green button with a dash to zoom out, or on the green arrows for adjacent maps.


METAR-TAF: